Time;durP1;ratioP1;P1;durP2;ratioP2;P2;SDS_P1;SDS_P2;PMS_P1;PMS_P2;Temp;Humidity;BMP_temperature;BMP_pressure;BME280_temperature;BME280_humidity;BME280_pressure;Samples;Min_cycle;Max_cycle;Signal;HPM_P1;HPM_P2
2023/04/05 00:00:47;;;;;;;18.23;10.80;;;3.40;99.90;;;;;;4923803;29;38404;-80
2023/04/05 00:03:13;;;;;;;18.53;11.30;;;3.40;99.90;;;;;;4907924;29;36345;-80
2023/04/05 00:05:39;;;;;;;16.53;11.13;;;3.30;99.90;;;;;;4922687;29;38646;-80
2023/04/05 00:08:12;;;;;;;18.60;11.10;;;3.20;99.90;;;;;;4925205;29;39185;-81
2023/04/05 00:10:44;;;;;;;;;;;3.20;99.90;;;;;;4927972;29;37929;-80
2023/04/05 00:13:10;;;;;;;15.67;10.53;;;3.10;99.90;;;;;;4901487;29;36447;-81
2023/04/05 00:15:36;;;;;;;16.93;11.60;;;3.10;99.90;;;;;;4926396;29;38067;-81
2023/04/05 00:18:02;;;;;;;15.70;11.03;;;3.10;99.90;;;;;;4902640;29;37363;-81
2023/04/05 00:20:28;;;;;;;16.30;11.57;;;3.00;99.90;;;;;;4918900;29;38718;-81
2023/04/05 00:22:54;;;;;;;17.37;11.37;;;2.90;99.90;;;;;;4904977;29;37225;-81
2023/04/05 00:25:21;;;;;;;18.27;11.97;;;2.90;99.90;;;;;;4914963;29;37467;-81
2023/04/05 00:27:47;;;;;;;19.23;12.03;;;2.80;99.90;;;;;;4913913;29;38173;-81
2023/04/05 00:30:19;;;;;;;22.50;12.03;;;2.80;99.90;;;;;;4914206;29;37246;-81
2023/04/05 00:32:49;;;;;;;20.48;11.45;;;2.80;99.90;;;;;;4920907;29;38887;-82
2023/04/05 00:35:16;;;;;;;19.67;11.70;;;2.70;99.90;;;;;;4923239;29;39071;-80
2023/04/05 00:37:42;;;;;;;20.60;12.50;;;2.80;99.90;;;;;;4927195;29;38270;-81
2023/04/05 00:40:09;;;;;;;19.37;12.77;;;2.80;99.90;;;;;;4924107;29;37053;-80
2023/04/05 00:42:35;;;;;;;19.27;12.13;;;2.80;99.90;;;;;;4926729;29;39905;-81
2023/04/05 00:45:01;;;;;;;17.00;11.17;;;2.80;99.90;;;;;;4926473;29;38791;-81
2023/04/05 00:47:28;;;;;;;17.70;11.67;;;2.80;99.90;;;;;;4927714;29;37705;-81
2023/04/05 00:49:54;;;;;;;18.70;12.53;;;2.70;99.90;;;;;;4926266;29;37291;-80
2023/04/05 00:52:22;;;;;;;16.87;11.50;;;2.70;99.90;;;;;;4931128;29;37744;-80
2023/04/05 00:54:50;;;;;;;23.07;12.93;;;2.60;99.90;;;;;;4919376;29;38760;-80
2023/04/05 00:57:17;;;;;;;18.03;12.37;;;2.70;99.90;;;;;;4934174;29;40151;-81
2023/04/05 00:59:43;;;;;;;22.77;12.77;;;2.60;99.90;;;;;;4923379;29;37340;-80
2023/04/05 01:02:19;;;;;;;20.37;12.23;;;2.60;99.90;;;;;;5385622;23;37280;-77
2023/04/05 01:04:55;;;;;;;17.20;11.63;;;2.60;99.90;;;;;;4905575;28;40013;-77
2023/04/05 01:07:37;;;;;;;17.77;11.60;;;2.60;99.90;;;;;;4932519;28;38716;-78
2023/04/05 01:10:08;;;;;;;16.93;11.93;;;2.60;99.90;;;;;;4921968;28;38104;-77
2023/04/05 01:12:36;;;;;;;21.47;13.13;;;2.60;99.90;;;;;;4931422;28;37476;-78
2023/04/05 01:15:02;;;;;;;20.93;13.03;;;2.50;99.90;;;;;;4913602;28;39364;-78
2023/04/05 01:17:35;;;;;;;20.47;12.93;;;2.60;99.90;;;;;;4916168;28;39406;-77
2023/04/05 01:20:07;;;;;;;20.80;13.00;;;2.50;99.90;;;;;;4929783;28;38474;-77
2023/04/05 01:22:40;;;;;;;19.92;12.95;;;2.50;99.90;;;;;;4910373;28;47241;-77
2023/04/05 01:25:29;;;;;;;20.92;12.93;;;2.40;99.90;;;;;;4912927;29;37762;-78
2023/04/05 01:27:58;;;;;;;25.87;14.57;;;2.30;99.90;;;;;;4913189;29;37874;-78
2023/04/05 01:30:50;;;;;;;23.00;13.60;;;2.30;99.90;;;;;;4922652;28;38219;-77
2023/04/05 01:33:31;;;;;;;20.17;14.00;;;2.20;99.90;;;;;;4913912;28;36414;-77
2023/04/05 01:36:03;;;;;;;20.17;13.53;;;2.20;99.90;;;;;;4911312;29;38739;-77
2023/04/05 01:38:32;;;;;;;23.23;14.27;;;2.10;99.90;;;;;;4911024;28;47129;-77
2023/04/05 01:40:58;;;;;;;20.20;13.20;;;2.00;99.90;;;;;;4913124;28;38133;-77
2023/04/05 01:43:24;;;;;;;20.20;13.23;;;2.00;99.90;;;;;;4916591;29;37703;-78
2023/04/05 01:45:50;;;;;;;19.23;13.00;;;2.00;99.90;;;;;;4917660;28;39473;-77
2023/04/05 01:48:16;;;;;;;23.20;13.73;;;1.90;99.90;;;;;;4935140;28;39616;-77
2023/04/05 01:50:42;;;;;;;21.47;13.57;;;1.90;99.90;;;;;;4912640;28;37397;-78
2023/04/05 01:53:09;;;;;;;23.40;14.37;;;1.80;99.90;;;;;;4912699;28;36219;-77
2023/04/05 01:55:35;;;;;;;19.17;13.80;;;1.80;99.90;;;;;;4943080;28;38895;-78
2023/04/05 01:58:01;;;;;;;19.37;14.13;;;1.80;99.90;;;;;;4911899;28;38299;-77
2023/04/05 02:00:27;;;;;;;19.57;13.50;;;1.80;99.90;;;;;;4921383;29;38744;-77
2023/04/05 02:02:53;;;;;;;25.73;15.83;;;1.70;99.90;;;;;;4922986;28;38613;-77
2023/04/05 02:05:19;;;;;;;22.57;14.33;;;1.70;99.90;;;;;;4893471;29;38296;-77
2023/04/05 02:07:45;;;;;;;26.63;14.80;;;1.70;99.90;;;;;;4894942;29;39202;-77
2023/04/05 02:10:11;;;;;;;20.37;13.43;;;1.70;99.90;;;;;;4901549;29;38262;-76
2023/04/05 02:12:37;;;;;;;23.03;14.30;;;1.70;99.90;;;;;;4894666;29;36501;-76
2023/04/05 02:15:04;;;;;;;21.57;14.53;;;1.70;99.90;;;;;;4902636;29;37497;-76
2023/04/05 02:17:32;;;;;;;25.63;15.27;;;1.70;99.90;;;;;;4898219;29;37707;-78
2023/04/05 02:20:02;;;;;;;23.40;14.93;;;1.70;99.90;;;;;;4889520;29;37507;-76
2023/04/05 02:22:28;;;;;;;24.57;15.30;;;1.60;99.90;;;;;;4897662;29;36287;-76
2023/04/05 02:24:54;;;;;;;21.23;14.70;;;1.60;99.90;;;;;;4922497;29;38955;-77
2023/04/05 02:27:20;;;;;;;23.63;15.63;;;1.50;99.90;;;;;;4924109;29;39889;-76
2023/04/05 02:29:47;;;;;;;25.80;15.80;;;1.50;99.90;;;;;;4903653;29;38944;-77
2023/04/05 02:32:13;;;;;;;25.47;16.23;;;1.40;99.90;;;;;;4892396;29;37208;-77
2023/04/05 02:34:40;;;;;;;24.30;14.60;;;1.40;99.90;;;;;;4891563;29;37511;-76
2023/04/05 02:37:06;;;;;;;24.37;15.67;;;1.40;99.90;;;;;;4889126;29;37691;-76
2023/04/05 02:39:33;;;;;;;24.70;15.23;;;1.30;99.90;;;;;;4914542;29;38657;-76
2023/04/05 02:41:59;;;;;;;24.80;15.60;;;1.30;99.90;;;;;;4895890;29;36329;-77
2023/04/05 02:44:27;;;;;;;25.63;17.00;;;1.30;99.90;;;;;;4911812;29;39179;-77
2023/04/05 02:46:53;;;;;;;25.10;17.87;;;1.30;99.90;;;;;;4912783;29;39027;-77
2023/04/05 02:49:19;;;;;;;23.07;15.93;;;1.30;99.90;;;;;;4895355;29;37306;-76
2023/04/05 02:51:45;;;;;;;23.97;14.53;;;1.30;99.90;;;;;;4912032;29;37539;-77
2023/04/05 02:54:11;;;;;;;24.23;15.27;;;1.30;99.90;;;;;;4899019;29;37655;-77
2023/04/05 02:56:37;;;;;;;24.67;16.33;;;1.30;99.90;;;;;;4905574;29;37748;-76
2023/04/05 02:59:04;;;;;;;28.60;16.60;;;1.20;99.90;;;;;;4895881;29;38340;-77
2023/04/05 03:01:31;;;;;;;25.53;16.97;;;1.20;99.90;;;;;;4896012;29;36512;-76
2023/04/05 03:03:57;;;;;;;31.73;17.70;;;1.20;99.90;;;;;;4908561;29;38051;-76
2023/04/05 03:06:23;;;;;;;27.70;17.13;;;1.10;99.90;;;;;;4906527;29;37687;-76
2023/04/05 03:08:49;;;;;;;22.97;15.70;;;1.10;99.90;;;;;;4914683;28;38124;-77
2023/04/05 03:11:16;;;;;;;23.37;17.10;;;1.00;99.90;;;;;;4928315;28;36254;-77
2023/04/05 03:13:42;;;;;;;28.37;17.07;;;1.00;99.90;;;;;;4917776;28;38595;-77
2023/04/05 03:16:08;;;;;;;32.77;17.73;;;0.90;99.90;;;;;;4913215;28;37914;-76
2023/04/05 03:18:34;;;;;;;24.07;17.07;;;0.90;99.90;;;;;;4908152;29;37306;-76
2023/04/05 03:21:03;;;;;;;28.60;18.33;;;0.90;99.90;;;;;;4909231;29;37536;-76
2023/04/05 03:23:30;;;;;;;28.03;18.20;;;0.80;99.90;;;;;;4903862;29;47191;-77
2023/04/05 03:25:56;;;;;;;27.60;16.80;;;0.80;99.90;;;;;;4911118;29;38927;-76
2023/04/05 03:28:23;;;;;;;30.33;17.03;;;0.90;99.90;;;;;;4913749;29;38530;-76
2023/04/05 03:30:50;;;;;;;25.23;17.47;;;0.80;99.90;;;;;;4908210;29;36335;-76
2023/04/05 03:33:17;;;;;;;28.00;18.13;;;0.80;99.90;;;;;;4903159;29;37641;-76
2023/04/05 03:35:43;;;;;;;29.33;18.43;;;0.80;99.90;;;;;;4925366;28;38739;-76
2023/04/05 03:38:09;;;;;;;27.77;17.90;;;0.80;99.90;;;;;;4909275;29;37923;-76
2023/04/05 03:40:35;;;;;;;30.50;18.67;;;0.70;99.90;;;;;;4921279;29;37328;-76
2023/04/05 03:43:01;;;;;;;29.43;17.80;;;0.70;99.90;;;;;;4919046;28;38821;-77
2023/04/05 03:45:30;;;;;;;28.13;17.77;;;0.70;99.90;;;;;;4908714;29;38558;-76
2023/04/05 03:47:57;;;;;;;30.43;17.70;;;0.70;99.90;;;;;;4912060;29;37434;-76
2023/04/05 03:50:25;;;;;;;30.27;18.50;;;0.70;99.90;;;;;;4909749;29;36014;-76
2023/04/05 03:52:52;;;;;;;30.80;19.20;;;0.70;99.90;;;;;;4907340;29;38986;-76
2023/04/05 03:55:18;;;;;;;30.67;18.77;;;0.70;99.90;;;;;;4914887;29;37538;-76
2023/04/05 03:57:44;;;;;;;30.80;19.23;;;0.70;99.90;;;;;;4909649;29;37180;-76
2023/04/05 04:00:13;;;;;;;31.10;17.93;;;0.60;99.90;;;;;;4917514;29;36335;-76
2023/04/05 04:02:49;;;;;;;28.97;18.77;;;0.60;99.90;;;;;;4906398;29;39056;-76
2023/04/05 04:05:16;;;;;;;31.30;18.33;;;0.60;99.90;;;;;;4914812;29;39003;-75
2023/04/05 04:07:43;;;;;;;32.23;18.97;;;0.60;99.90;;;;;;4901942;29;38552;-75
2023/04/05 04:10:11;;;;;;;30.57;19.40;;;0.70;99.90;;;;;;4893645;29;36075;-76
2023/04/05 04:12:37;;;;;;;29.33;20.10;;;0.60;99.90;;;;;;4911787;29;38388;-75
2023/04/05 04:15:04;;;;;;;27.83;18.87;;;0.60;99.90;;;;;;4914965;29;38857;-76
2023/04/05 04:17:33;;;;;;;33.07;19.77;;;0.70;99.90;;;;;;4901050;29;48276;-76
2023/04/05 04:19:59;;;;;;;31.07;19.70;;;0.70;99.90;;;;;;4895966;29;36345;-76
2023/04/05 04:22:32;;;;;;;32.17;20.00;;;0.70;99.90;;;;;;4896157;29;37450;-76
2023/04/05 04:25:03;;;;;;;41.88;23.25;;;0.70;99.90;;;;;;4892191;29;37717;-76
2023/04/05 04:27:34;;;;;;;34.67;21.37;;;0.70;99.90;;;;;;4891456;29;38774;-76
2023/04/05 04:30:02;;;;;;;31.67;21.17;;;0.60;99.90;;;;;;4895773;29;36244;-76
2023/04/05 04:35:17;;;;;;;34.27;20.97;;;0.60;99.90;;;;;;4909283;29;41549;-76
2023/04/05 04:37:46;;;;;;;32.47;20.67;;;0.50;99.90;;;;;;4900398;29;37250;-75
2023/04/05 04:40:20;;;;;;;39.97;21.67;;;0.40;99.90;;;;;;4911655;29;37418;-75
2023/04/05 04:42:46;;;;;;;38.00;21.70;;;0.40;99.90;;;;;;4898276;29;38587;-76
2023/04/05 04:45:16;;;;;;;32.33;22.17;;;0.40;99.90;;;;;;4888464;29;37369;-75
2023/04/05 04:47:44;;;;;;;36.13;23.53;;;0.30;99.90;;;;;;4906931;29;39977;-75
2023/04/05 04:50:10;;;;;;;40.47;24.13;;;0.30;99.90;;;;;;4889960;29;36941;-76
2023/04/05 04:52:39;;;;;;;38.47;24.60;;;0.30;99.90;;;;;;4889582;29;37764;-75
2023/04/05 04:55:09;;;;;;;35.37;23.20;;;0.20;99.90;;;;;;4895211;29;38883;-75
2023/04/05 04:57:35;;;;;;;35.90;20.07;;;0.30;99.90;;;;;;4893798;29;38545;-75
2023/04/05 05:00:06;;;;;;;36.07;22.57;;;0.30;99.90;;;;;;4907505;29;38099;-75
2023/04/05 05:02:32;;;;;;;38.13;23.03;;;0.40;99.90;;;;;;4890198;29;38017;-75
2023/04/05 05:04:58;;;;;;;33.40;22.13;;;0.30;99.90;;;;;;4894723;29;37896;-74
2023/04/05 05:07:25;;;;;;;37.67;22.13;;;0.20;99.90;;;;;;4907935;29;38230;-74
2023/04/05 05:09:52;;;;;;;37.50;22.77;;;0.30;99.90;;;;;;4905278;29;37289;-74
2023/04/05 05:12:20;;;;;;;42.40;24.43;;;0.30;99.90;;;;;;4888919;29;37928;-75
2023/04/05 05:14:46;;;;;;;37.13;23.30;;;0.30;99.90;;;;;;4905209;29;39362;-74
2023/04/05 05:17:12;;;;;;;41.10;24.83;;;0.30;99.90;;;;;;4898423;29;37661;-75
2023/04/05 05:19:38;;;;;;;37.20;24.53;;;0.30;99.90;;;;;;4895175;29;36620;-75
2023/04/05 05:22:04;;;;;;;41.90;24.70;;;0.40;99.90;;;;;;4905975;29;38297;-74
2023/04/05 05:24:31;;;;;;;38.30;23.63;;;0.40;99.90;;;;;;4899653;29;40758;-75
2023/04/05 05:26:57;;;;;;;57.73;27.43;;;0.40;99.90;;;;;;4905084;29;38345;-74
2023/04/05 05:29:23;;;;;;;51.17;27.20;;;0.50;99.90;;;;;;4907952;29;37646;-76
2023/04/05 05:31:49;;;;;;;45.93;26.73;;;0.40;99.90;;;;;;4891888;29;38009;-73
2023/04/05 05:34:16;;;;;;;45.53;26.30;;;0.50;99.90;;;;;;4890269;29;38221;-74
2023/04/05 05:36:42;;;;;;;46.37;28.80;;;0.50;99.90;;;;;;4905045;29;37659;-75
2023/04/05 05:39:08;;;;;;;46.20;28.43;;;0.60;99.90;;;;;;4909083;29;36265;-75
2023/04/05 05:41:35;;;;;;;47.47;29.27;;;0.60;99.90;;;;;;4913229;29;38395;-74
2023/04/05 05:44:01;;;;;;;48.10;30.40;;;0.70;99.90;;;;;;4894738;29;37851;-77
2023/04/05 05:46:27;;;;;;;52.77;32.53;;;0.70;99.90;;;;;;4891534;29;45411;-75
2023/04/05 05:48:53;;;;;;;53.50;32.17;;;0.80;99.90;;;;;;4913016;29;38513;-76
2023/04/05 05:51:19;;;;;;;49.60;32.30;;;0.80;99.90;;;;;;4874116;29;37946;-74
2023/04/05 05:53:46;;;;;;;48.50;30.83;;;0.90;99.90;;;;;;4907441;29;38895;-74
2023/04/05 05:56:12;;;;;;;43.77;28.97;;;1.00;99.90;;;;;;4893337;29;38429;-74
2023/04/05 05:58:38;;;;;;;50.13;31.13;;;1.10;99.90;;;;;;4893897;29;36236;-74
2023/04/05 06:01:07;;;;;;;45.93;30.10;;;1.10;99.90;;;;;;4903820;29;37545;-75
2023/04/05 06:03:33;;;;;;;49.17;31.97;;;1.10;99.90;;;;;;4909735;28;38076;-74
2023/04/05 06:06:02;;;;;;;56.43;34.83;;;1.20;99.90;;;;;;4935822;28;39686;-74
2023/04/05 06:08:28;;;;;;;48.27;34.07;;;1.30;99.90;;;;;;4929116;28;48534;-75
2023/04/05 06:10:54;;;;;;;64.77;41.93;;;1.30;99.90;;;;;;4928316;28;39597;-76
2023/04/05 06:13:20;;;;;;;67.67;40.73;;;1.40;99.90;;;;;;4906017;28;37757;-76
2023/04/05 06:15:47;;;;;;;55.20;37.37;;;1.40;99.90;;;;;;4915513;29;37989;-77
2023/04/05 06:18:13;;;;;;;52.47;35.33;;;1.50;99.90;;;;;;4918167;28;37834;-75
2023/04/05 06:20:41;;;;;;;58.33;36.83;;;1.60;99.90;;;;;;4912163;28;37695;-75
2023/04/05 06:23:08;;;;;;;63.30;39.80;;;1.70;99.90;;;;;;4943613;28;38681;-76
2023/04/05 06:25:34;;;;;;;54.97;39.10;;;1.80;99.90;;;;;;4936230;28;38507;-77
2023/04/05 06:28:02;;;;;;;58.93;38.20;;;1.80;99.90;;;;;;4928829;28;37810;-77
2023/04/05 06:30:30;;;;;;;62.17;40.30;;;2.00;99.90;;;;;;4934032;28;48789;-75
2023/04/05 06:32:56;;;;;;;59.13;38.60;;;2.20;99.90;;;;;;4929685;28;39336;-76
2023/04/05 06:35:23;;;;;;;56.80;39.23;;;2.40;99.90;;;;;;4914486;29;37458;-77
2023/04/05 06:37:50;;;;;;;55.53;37.23;;;2.50;99.90;;;;;;4916556;29;38011;-77
2023/04/05 06:40:17;;;;;;;65.50;40.13;;;2.50;99.90;;;;;;4940199;28;39495;-77
2023/04/05 06:42:44;;;;;;;58.27;37.40;;;2.70;99.90;;;;;;4919389;29;37900;-77
2023/04/05 06:45:11;;;;;;;67.23;43.37;;;2.80;99.90;;;;;;4919909;28;38540;-77
2023/04/05 06:47:39;;;;;;;66.20;40.20;;;3.00;99.90;;;;;;4919882;28;37649;-77
2023/04/05 06:50:07;;;;;;;71.33;41.47;;;3.10;99.90;;;;;;4911012;28;38461;-76
2023/04/05 06:52:33;;;;;;;54.47;36.93;;;3.30;99.90;;;;;;4915092;28;47040;-76
2023/04/05 06:55:00;;;;;;;54.20;36.50;;;3.40;99.90;;;;;;4909486;28;37491;-77
2023/04/05 06:57:26;;;;;;;59.30;37.07;;;3.60;99.90;;;;;;4917660;28;37713;-77
2023/04/05 06:59:53;;;;;;;52.17;35.23;;;3.70;99.90;;;;;;4935425;28;38593;-77
2023/04/05 07:02:22;;;;;;;52.07;35.30;;;3.80;99.90;;;;;;4916066;28;39232;-76
2023/04/05 07:04:49;;;;;;;49.97;33.80;;;3.90;99.90;;;;;;4915755;28;38169;-76
2023/04/05 07:07:16;;;;;;;48.87;33.80;;;4.00;99.90;;;;;;4929763;28;36567;-76
2023/04/05 07:09:42;;;;;;;49.93;33.63;;;4.10;99.90;;;;;;4910087;28;39483;-76
2023/04/05 07:12:08;;;;;;;53.60;32.90;;;4.20;99.90;;;;;;4914669;28;38452;-77
2023/04/05 07:14:36;;;;;;;44.03;29.43;;;4.30;99.90;;;;;;4941566;28;38364;-77
2023/04/05 07:17:05;;;;;;;41.87;29.23;;;4.40;99.90;;;;;;4932226;28;37455;-77
2023/04/05 07:19:31;;;;;;;42.83;29.53;;;4.50;99.90;;;;;;4913706;28;37616;-77
2023/04/05 07:21:58;;;;;;;41.00;26.57;;;4.70;99.90;;;;;;4909727;29;38664;-76
2023/04/05 07:24:25;;;;;;;35.27;23.63;;;4.80;99.90;;;;;;4915742;29;37017;-76
2023/04/05 07:26:51;;;;;;;38.23;25.07;;;5.00;99.90;;;;;;4915416;29;36221;-77
2023/04/05 07:29:17;;;;;;;35.70;22.80;;;5.00;99.90;;;;;;4915592;28;38075;-78
2023/04/05 07:31:43;;;;;;;34.63;23.30;;;5.20;99.90;;;;;;4911202;28;39045;-77
2023/04/05 07:34:10;;;;;;;31.17;21.87;;;5.30;99.90;;;;;;4924188;29;38718;-77
2023/04/05 07:36:36;;;;;;;30.77;22.03;;;5.40;99.90;;;;;;4935714;28;38366;-77
2023/04/05 07:39:02;;;;;;;34.37;20.73;;;5.40;99.90;;;;;;4926350;28;38526;-76
2023/04/05 07:41:34;;;;;;;30.17;20.07;;;5.50;99.90;;;;;;4930076;28;39746;-76
2023/04/05 07:44:00;;;;;;;28.43;19.37;;;5.60;99.90;;;;;;4931591;28;38161;-76
2023/04/05 07:46:26;;;;;;;27.83;18.73;;;5.80;99.90;;;;;;4919072;29;39292;-76
2023/04/05 07:48:53;;;;;;;26.40;17.60;;;5.80;99.90;;;;;;4920154;28;37932;-76
2023/04/05 07:51:19;;;;;;;26.93;18.67;;;5.90;99.90;;;;;;4917695;29;37976;-75
2023/04/05 07:53:45;;;;;;;29.70;19.47;;;6.00;99.90;;;;;;4938409;28;37286;-74
2023/04/05 07:56:13;;;;;;;26.37;18.03;;;6.10;99.90;;;;;;4913519;28;34908;-75
2023/04/05 07:58:40;;;;;;;22.43;16.60;;;6.20;99.90;;;;;;4913739;28;37703;-75
2023/04/05 08:01:07;;;;;;;21.80;15.80;;;6.30;99.90;;;;;;4903333;29;37894;-73
2023/04/05 08:03:34;;;;;;;23.90;15.97;;;6.30;99.90;;;;;;4911339;28;37504;-73
2023/04/05 08:06:12;;;;;;;23.57;14.10;;;6.60;99.90;;;;;;4938682;28;37001;-74
2023/04/05 08:08:39;;;;;;;26.10;14.20;;;6.70;99.90;;;;;;4919436;29;47259;-75
2023/04/05 08:11:05;;;;;;;19.83;13.83;;;6.80;99.90;;;;;;4915610;28;37261;-74
2023/04/05 08:13:32;;;;;;;18.37;13.00;;;7.00;99.90;;;;;;4912994;29;37286;-74
2023/04/05 08:16:05;;;;;;;18.00;11.63;;;7.20;99.90;;;;;;4937857;28;37445;-74
2023/04/05 08:18:33;;;;;;;22.67;13.57;;;7.20;99.90;;;;;;4945407;28;48687;-74
2023/04/05 08:20:59;;;;;;;21.20;12.30;;;7.20;99.90;;;;;;4939891;28;39719;-75
2023/04/05 08:23:26;;;;;;;18.27;11.00;;;7.40;99.90;;;;;;4938290;28;38631;-74
2023/04/05 08:25:53;;;;;;;21.63;11.37;;;7.40;99.90;;;;;;4918180;29;37184;-73
2023/04/05 08:28:19;;;;;;;23.03;10.37;;;7.60;99.90;;;;;;4939084;28;38981;-74
2023/04/05 08:30:45;;;;;;;16.17;9.43;;;7.70;99.90;;;;;;4928485;28;38903;-74
2023/04/05 08:33:11;;;;;;;18.60;10.17;;;7.80;99.90;;;;;;4932132;28;39379;-74
2023/04/05 08:35:38;;;;;;;17.10;9.83;;;8.10;99.90;;;;;;4905856;28;35953;-74
2023/04/05 08:38:06;;;;;;;14.97;9.00;;;8.10;99.90;;;;;;4918509;28;38462;-74
2023/04/05 08:40:38;;;;;;;15.73;9.40;;;8.40;99.90;;;;;;4925428;29;38457;-75
2023/04/05 08:43:21;;;;;;;16.15;9.68;;;8.60;99.90;;;;;;4922585;28;37510;-75
2023/04/05 08:45:51;;;;;;;21.48;9.75;;;8.70;99.90;;;;;;4915934;29;36318;-74
2023/04/05 08:48:19;;;;;;;18.30;10.60;;;8.80;99.90;;;;;;4924041;28;39230;-75
2023/04/05 08:50:50;;;;;;;14.93;9.10;;;8.90;99.90;;;;;;4907827;28;37809;-76
2023/04/05 08:53:16;;;;;;;15.47;9.20;;;8.90;99.90;;;;;;4899619;29;38127;-77
2023/04/05 08:55:45;;;;;;;15.97;9.67;;;9.10;99.90;;;;;;4927041;28;37898;-78
2023/04/05 08:58:13;;;;;;;17.03;9.53;;;9.10;99.90;;;;;;4921076;28;38778;-77
2023/04/05 09:00:41;;;;;;;16.97;9.00;;;9.20;99.90;;;;;;4911048;28;35991;-76
2023/04/05 09:03:11;;;;;;;14.33;8.80;;;9.40;99.90;;;;;;4910572;29;40126;-76
2023/04/05 09:05:39;;;;;;;15.77;9.80;;;9.40;99.90;;;;;;4909466;28;37075;-76
2023/04/05 09:08:06;;;;;;;14.70;9.23;;;9.60;99.90;;;;;;4924508;28;38447;-76
2023/04/05 09:10:32;;;;;;;16.73;10.20;;;9.60;99.90;;;;;;4906944;28;37956;-76
2023/04/05 09:12:59;;;;;;;17.40;9.97;;;9.50;99.90;;;;;;4904804;28;37548;-76
2023/04/05 09:15:26;;;;;;;15.50;9.60;;;9.60;99.90;;;;;;4917939;28;37660;-77
2023/04/05 09:17:54;;;;;;;23.75;10.15;;;9.80;99.90;;;;;;4922539;28;39492;-76
2023/04/05 09:20:20;;;;;;;19.42;9.73;;;10.00;99.90;;;;;;4921945;28;38660;-76
2023/04/05 09:22:46;;;;;;;14.80;8.83;;;10.10;99.90;;;;;;4901891;28;37325;-77
2023/04/05 09:25:31;;;;;;;18.92;10.48;;;10.00;99.90;;;;;;4906664;28;35674;-77
2023/04/05 09:27:58;;;;;;;21.70;9.35;;;10.30;99.90;;;;;;4907550;28;37921;-77
2023/04/05 09:30:26;;;;;;;14.80;9.40;;;10.30;99.90;;;;;;4901554;28;38593;-77
2023/04/05 09:32:54;;;;;;;16.05;10.25;;;10.00;99.90;;;;;;4918078;28;38458;-78
2023/04/05 09:35:29;;;;;;;15.35;8.65;;;10.10;99.90;;;;;;4918864;28;36353;-76
2023/04/05 09:38:00;;;;;;;15.38;9.50;;;10.30;99.90;;;;;;4921834;28;38708;-77
2023/04/05 09:40:45;;;;;;;17.08;9.95;;;10.30;99.90;;;;;;4896212;28;39311;-76
2023/04/05 09:43:32;;;;;;;19.42;9.90;;;10.60;99.90;;;;;;4921249;28;38297;-76
2023/04/05 09:45:59;;;;;;;17.60;10.20;;;10.80;99.90;;;;;;4906916;28;35883;-77
2023/04/05 09:48:47;;;;;;;24.17;10.38;;;10.80;99.90;;;;;;4903110;28;37856;-77
2023/04/05 09:51:17;;;;;;;15.63;9.95;;;10.70;99.90;;;;;;4900348;28;37785;-77
2023/04/05 09:54:01;;;;;;;18.98;11.07;;;10.60;99.90;;;;;;4926596;28;38056;-77
2023/04/05 09:56:35;;;;;;;18.35;10.20;;;10.70;99.90;;;;;;4928726;28;48753;-77
2023/04/05 09:59:05;;;;;;;13.82;9.38;;;11.00;99.90;;;;;;4898617;28;37536;-77
2023/04/05 10:01:32;;;;;;;21.80;10.45;;;10.90;99.90;;;;;;4922126;28;48051;-77
2023/04/05 10:03:59;;;;;;;20.90;9.80;;;11.40;99.90;;;;;;4899969;28;37623;-76
2023/04/05 10:06:41;;;;;;;17.27;9.43;;;11.70;99.90;;;;;;4908526;28;37457;-77
2023/04/05 10:09:10;;;;;;;13.52;9.45;;;11.50;99.90;;;;;;4915108;28;38747;-78
2023/04/05 10:11:37;;;;;;;14.38;9.60;;;11.70;99.90;;;;;;4895127;28;37912;-79
2023/04/05 10:14:06;;;;;;;15.93;10.02;;;11.70;99.90;;;;;;4919495;28;38409;-76
2023/04/05 10:16:37;;;;;;;14.20;9.80;;;11.80;99.90;;;;;;4901047;28;34779;-76
2023/04/05 10:19:09;;;;;;;17.77;10.77;;;11.80;99.90;;;;;;4902071;28;38047;-77
2023/04/05 10:21:42;;;;;;;14.45;9.95;;;11.50;99.90;;;;;;4890574;28;37423;-77
2023/04/05 10:24:32;;;;;;;17.90;10.52;;;11.50;99.90;;;;;;4906654;28;37214;-78
2023/04/05 10:27:05;;;;;;;14.93;10.43;;;11.30;99.90;;;;;;4918229;28;36352;-77
2023/04/05 10:30:01;;;;;;;17.02;11.13;;;11.30;99.90;;;;;;4903235;28;48110;-78
2023/04/05 10:32:59;;;;;;;20.27;10.15;;;11.20;99.90;;;;;;4919816;28;38990;-76
2023/04/05 10:35:40;;;;;;;15.40;10.75;;;11.40;99.90;;;;;;4898641;28;38196;-76
2023/04/05 10:38:27;;;;;;;38.38;11.85;;;11.60;99.90;;;;;;4913630;28;36758;-76
2023/04/05 10:41:07;;;;;;;23.33;10.07;;;12.20;99.90;;;;;;4890864;28;37771;-76
2023/04/05 10:43:36;;;;;;;19.55;10.80;;;12.70;99.90;;;;;;4892606;28;47950;-76
2023/04/05 10:46:05;;;;;;;20.38;11.45;;;13.00;99.90;;;;;;4901665;28;37674;-75
2023/04/05 10:48:58;;;;;;;14.10;11.07;;;12.20;99.90;;;;;;4914939;28;36758;-76
2023/04/05 10:51:25;;;;;;;;;;;12.30;99.90;;;;;;4906438;28;39019;-76
2023/04/05 10:53:52;;;;;;;18.08;12.90;;;12.20;99.90;;;;;;4900872;28;39123;-76
2023/04/05 10:56:20;;;;;;;18.33;13.27;;;12.10;99.90;;;;;;4900363;28;37944;-76
2023/04/05 10:58:48;;;;;;;18.98;12.55;;;12.10;99.90;;;;;;4899959;28;36234;-76
2023/04/05 11:01:16;;;;;;;20.92;13.93;;;12.20;99.90;;;;;;4891091;28;36550;-78
2023/04/05 11:03:50;;;;;;;18.70;13.23;;;12.40;99.90;;;;;;4907226;28;37819;-80
2023/04/05 11:06:28;;;;;;;19.65;13.82;;;12.30;99.90;;;;;;4905858;28;39182;-76
2023/04/05 11:09:00;;;;;;;19.15;13.07;;;12.30;99.90;;;;;;4921252;28;39773;-78
2023/04/05 11:11:36;;;;;;;18.80;12.88;;;12.80;99.90;;;;;;4908486;28;37663;-77
2023/04/05 11:14:24;;;;;;;20.58;14.32;;;13.00;99.90;;;;;;4899533;28;39590;-77
2023/04/05 11:16:58;;;;;;;21.77;13.68;;;12.60;99.90;;;;;;4914505;28;37450;-76
2023/04/05 11:19:43;;;;;;;22.00;14.23;;;12.80;99.90;;;;;;4915213;28;37407;-76
2023/04/05 11:22:09;;;;;;;24.00;15.75;;;13.50;99.90;;;;;;4916255;28;38572;-76
2023/04/05 11:24:55;;;;;;;23.20;14.43;;;13.50;99.90;;;;;;4911682;28;38890;-76
2023/04/05 11:27:26;;;;;;;21.70;15.63;;;12.90;99.90;;;;;;4913197;28;38141;-76
2023/04/05 11:29:53;;;;;;;25.35;16.63;;;12.70;99.90;;;;;;4899569;28;36493;-81
2023/04/05 11:32:20;;;;;;;24.20;17.38;;;12.50;99.90;;;;;;4903155;28;38691;-79
2023/04/05 11:35:03;;;;;;;25.08;17.20;;;12.80;99.90;;;;;;4900044;28;38681;-77
2023/04/05 11:37:53;;;;;;;25.38;18.10;;;13.20;99.90;;;;;;4905032;28;47047;-77
2023/04/05 11:40:30;;;;;;;22.15;15.65;;;13.60;99.90;;;;;;4901394;28;36154;-79
2023/04/05 11:43:02;;;;;;;23.70;16.02;;;13.50;99.90;;;;;;4921175;28;39353;-77
2023/04/05 11:45:30;;;;;;;24.35;17.23;;;13.00;99.90;;;;;;4891198;28;47257;-76
2023/04/05 11:47:57;;;;;;;23.25;16.33;;;13.10;99.90;;;;;;4923725;28;37953;-76
2023/04/05 11:50:25;;;;;;;21.33;16.13;;;12.60;99.90;;;;;;4920959;28;37220;-79
2023/04/05 11:53:10;;;;;;;23.10;16.05;;;13.10;99.90;;;;;;4908245;28;38004;-77
2023/04/05 11:55:41;;;;;;;23.45;16.30;;;13.60;99.90;;;;;;4912404;28;48483;-77
2023/04/05 11:58:12;;;;;;;24.40;15.60;;;14.10;99.90;;;;;;4914080;28;39409;-76
2023/04/05 12:00:42;;;;;;;22.45;14.98;;;13.90;99.90;;;;;;4909841;28;36441;-78
2023/04/05 12:03:15;;;;;;;20.83;14.98;;;13.70;99.90;;;;;;4889128;29;38076;-79
2023/04/05 12:06:00;;;;;;;20.33;15.07;;;13.90;99.90;;;;;;4903683;29;38849;-77
2023/04/05 12:08:40;;;;;;;21.65;15.23;;;14.40;99.90;;;;;;4890196;29;37274;-77
2023/04/05 12:11:08;;;;;;;22.88;15.32;;;14.80;99.90;;;;;;4875185;29;37741;-78
2023/04/05 12:13:35;;;;;;;19.17;14.18;;;14.90;99.90;;;;;;4891304;29;37856;-78
2023/04/05 12:16:04;;;;;;;18.92;14.65;;;14.90;99.90;;;;;;4881605;29;37415;-78
2023/04/05 12:18:32;;;;;;;21.20;14.93;;;15.30;99.90;;;;;;4876077;29;38362;-79
2023/04/05 12:21:00;;;;;;;17.83;14.25;;;15.60;99.90;;;;;;4880418;29;36649;-78
2023/04/05 12:23:27;;;;;;;19.55;14.38;;;15.80;99.90;;;;;;4878722;29;38918;-78
2023/04/05 12:25:55;;;;;;;22.90;14.77;;;14.10;99.90;;;;;;4884164;29;38388;-77
2023/04/05 12:28:22;;;;;;;19.75;14.18;;;13.50;99.90;;;;;;4884703;29;38239;-79
2023/04/05 12:30:57;;;;;;;20.88;14.93;;;13.40;99.90;;;;;;4888467;29;37731;-80
2023/04/05 12:33:28;;;;;;;25.55;16.25;;;13.50;99.90;;;;;;4884903;29;37863;-77
2023/04/05 12:35:57;;;;;;;22.52;16.73;;;13.00;99.90;;;;;;4904126;29;38677;-76
2023/04/05 12:38:28;;;;;;;23.00;16.70;;;12.80;99.90;;;;;;4902677;29;38540;-76
2023/04/05 12:40:59;;;;;;;22.92;15.80;;;13.20;99.90;;;;;;4882130;29;36555;-76
2023/04/05 12:43:25;;;;;;;24.10;15.63;;;13.50;99.90;;;;;;4881235;29;37854;-80
2023/04/05 12:46:03;;;;;;;24.30;16.95;;;14.20;99.90;;;;;;4882154;29;37597;-77
2023/04/05 12:48:29;;;;;;;21.77;16.75;;;14.70;99.90;;;;;;4878900;29;46862;-78